Time;durP1;ratioP1;P1;durP2;ratioP2;P2;SDS_P1;SDS_P2;PMS_P1;PMS_P2;Temp;Humidity;BMP_temperature;BMP_pressure;BME280_temperature;BME280_humidity;BME280_pressure;Samples;Min_cycle;Max_cycle;Signal;HPM_P1;HPM_P2
2022/09/15 00:00:53;;;;;;;10.52;3.33;;;;;;;26.75;51.47;100445.91;5033370;28;20059;-83
2022/09/15 00:03:22;;;;;;;9.07;3.42;;;;;;;26.62;51.76;100423.38;5032292;28;20151;-82
2022/09/15 00:05:51;;;;;;;9.80;3.83;;;;;;;26.75;51.51;100438.56;5030775;28;20080;-82
2022/09/15 00:08:18;;;;;;;14.18;3.67;;;;;;;27.00;51.64;100473.56;5047843;28;20447;-81
2022/09/15 00:10:53;;;;;;;8.32;3.47;;;;;;;26.58;52.20;100403.19;5046649;28;20377;-82
2022/09/15 00:13:21;;;;;;;18.05;3.88;;;;;;;27.02;52.01;100465.97;5048060;28;20051;-83
2022/09/15 00:15:48;;;;;;;11.85;3.17;;;;;;;26.79;51.98;100428.00;5047982;28;20107;-83
2022/09/15 00:18:14;;;;;;;9.20;3.53;;;;;;;26.50;51.71;100364.63;5048389;28;20053;-81
2022/09/15 00:20:43;;;;;;;13.15;3.47;;;;;;;27.16;51.65;100454.72;5030162;28;20134;-83
2022/09/15 00:23:11;;;;;;;12.35;3.55;;;;;;;27.17;51.53;100459.91;5030433;28;20055;-82
2022/09/15 00:25:48;;;;;;;9.60;3.50;;;;;;;27.14;51.60;100437.78;5029812;28;20059;-82
2022/09/15 00:28:17;;;;;;;12.95;3.28;;;;;;;26.58;51.72;100359.63;5047659;28;20254;-83
2022/09/15 00:30:46;;;;;;;10.88;3.33;;;;;;;26.10;51.75;100263.03;5030007;28;20783;-81
2022/09/15 00:33:15;;;;;;;9.38;3.40;;;;;;;26.04;51.46;100268.63;5035504;28;20051;-82
2022/09/15 00:35:59;;;;;;;14.60;3.90;;;;;;;27.03;52.20;100429.47;5051744;28;20144;-82
2022/09/15 00:38:26;;;;;;;8.35;3.47;;;;;;;26.60;52.40;100368.38;5031518;28;20053;-81
2022/09/15 00:40:57;;;;;;;12.27;4.03;;;;;;;26.78;52.37;100393.69;5033252;28;20488;-79
2022/09/15 00:43:42;;;;;;;8.30;3.25;;;;;;;26.85;53.65;100437.91;5031422;28;20554;-80
2022/09/15 00:46:10;;;;;;;10.02;3.55;;;;;;;26.74;53.28;100444.25;5047773;28;20572;-80
2022/09/15 00:48:40;;;;;;;12.43;3.60;;;;;;;26.66;53.54;100445.50;5030152;28;20139;-83
2022/09/15 00:51:10;;;;;;;8.17;3.00;;;;;;;26.75;53.62;100449.47;5029717;28;20049;-83
2022/09/15 00:53:37;;;;;;;7.35;3.55;;;;;;;26.34;54.00;100380.69;5029615;28;20068;-82
2022/09/15 00:56:07;;;;;;;8.48;3.83;;;;;;;26.42;53.75;100421.09;5029896;28;20061;-81
2022/09/15 00:58:42;;;;;;;14.15;3.25;;;;;;;26.59;52.95;100429.31;5029206;28;20067;-82
2022/09/15 01:01:14;;;;;;;14.85;4.25;;;;;;;27.02;52.35;100449.63;5029442;28;20060;-82
2022/09/15 01:03:41;;;;;;;13.10;3.92;;;;;;;26.78;52.70;100421.75;5029559;28;20122;-81
2022/09/15 01:06:14;;;;;;;7.43;3.60;;;;;;;26.76;52.76;100413.00;5029061;28;20048;-84
2022/09/15 01:08:53;;;;;;;12.27;3.38;;;;;;;26.83;53.00;100419.09;5029251;28;20049;-82
2022/09/15 01:11:19;;;;;;;11.95;3.85;;;;;;;26.92;52.78;100433.13;5029439;28;20130;-83
2022/09/15 01:13:46;;;;;;;10.50;3.42;;;;;;;26.75;52.93;100397.72;5028894;28;20084;-83
2022/09/15 01:16:54;;;;;;;10.27;3.85;;;;;;;26.98;53.04;100451.19;5028961;28;20095;-81
2022/09/15 01:19:39;;;;;;;10.55;3.65;;;;;;;27.09;52.92;100471.25;5015231;28;20057;-81
2022/09/15 01:22:34;;;;;;;13.35;4.53;;;;;;;26.66;53.38;100412.00;5027774;28;20496;-81
2022/09/15 01:25:07;;;;;;;11.95;4.20;;;;;;;27.00;53.20;100498.06;5027342;28;20439;-82
2022/09/15 01:27:54;;;;;;;10.13;3.53;;;;;;;26.54;53.51;100393.84;5026760;28;20425;-81
2022/09/15 01:30:23;;;;;;;15.00;4.15;;;;;;;27.07;53.59;100508.81;5028886;28;20045;-81
2022/09/15 01:33:11;;;;;;;13.43;3.85;;;;;;;27.21;53.64;100498.41;5028769;28;20119;-81
2022/09/15 01:35:54;;;;;;;10.68;3.58;;;;;;;26.54;53.84;100382.97;5028469;28;20045;-82
2022/09/15 01:39:05;;;;;;;4.07;3.13;;;;;;;27.06;54.43;100474.44;5026959;28;20052;-81
2022/09/15 01:41:58;;;;;;;9.13;3.83;;;;;;;26.91;54.74;100438.81;5040021;28;20055;-79
2022/09/15 01:44:31;;;;;;;10.18;3.60;;;;;;;26.97;55.11;100435.94;5027632;28;20590;-81
2022/09/15 01:47:05;;;;;;;8.55;3.50;;;;;;;27.07;55.42;100446.97;5028738;28;20110;-81
2022/09/15 01:50:09;;;;;;;7.95;3.55;;;;;;;27.06;55.76;100445.34;5028260;28;20136;-80
2022/09/15 01:52:41;;;;;;;6.13;3.60;;;;;;;26.89;55.67;100411.81;5028347;28;20391;-80
2022/09/15 01:55:36;;;;;;;11.20;3.95;;;;;;;26.96;56.12;100428.81;5027780;28;20379;-80
2022/09/15 01:58:03;;;;;;;9.30;4.05;;;;;;;26.76;55.85;100402.09;5028357;28;20373;-81
2022/09/15 02:00:34;;;;;;;8.50;3.50;;;;;;;26.62;56.28;100387.97;5028418;28;20057;-81
2022/09/15 02:03:07;;;;;;;7.90;3.60;;;;;;;26.65;56.16;100383.94;5046972;28;20057;-80
2022/09/15 02:05:43;;;;;;;9.43;2.97;;;;;;;26.84;56.69;100409.00;5036357;28;20108;-82
2022/09/15 02:08:19;;;;;;;5.38;3.53;;;;;;;26.79;56.20;100395.31;5037314;28;20049;-81
2022/09/15 02:10:50;;;;;;;8.95;3.50;;;;;;;26.80;56.30;100386.09;5028670;28;20060;-80
2022/09/15 02:13:23;;;;;;;6.15;3.25;;;;;;;26.84;56.61;100398.13;5028464;28;20538;-82
2022/09/15 02:15:55;;;;;;;13.98;3.55;;;;;;;26.82;56.50;100383.94;5027977;28;20060;-80
2022/09/15 02:18:43;;;;;;;8.57;3.40;;;;;;;26.70;58.39;100372.31;5028303;28;20069;-79
2022/09/15 02:21:19;;;;;;;15.98;4.28;;;;;;;26.58;60.48;100356.91;5027680;28;20059;-82
2022/09/15 02:23:55;;;;;;;7.60;4.07;;;;;;;26.49;60.97;100350.19;5028079;28;20061;-81
2022/09/15 02:26:26;;;;;;;7.85;4.47;;;;;;;26.63;60.30;100397.81;5027795;28;20131;-79
2022/09/15 02:28:56;;;;;;;8.27;3.50;;;;;;;26.61;60.09;100391.78;5032820;28;20122;-82
2022/09/15 02:31:25;;;;;;;12.18;4.68;;;;;;;26.42;60.38;100363.13;5032884;28;20144;-81
2022/09/15 02:33:58;;;;;;;7.93;4.15;;;;;;;26.10;59.43;100320.16;5028765;28;20049;-82
2022/09/15 02:36:27;;;;;;;9.02;3.97;;;;;;;25.89;59.58;100283.63;5027864;28;20071;-82
2022/09/15 02:39:02;;;;;;;13.27;3.63;;;;;;;26.57;59.23;100371.56;5028915;28;20076;-82
2022/09/15 02:41:29;;;;;;;6.53;3.35;;;;;;;26.51;59.02;100350.78;5048462;28;20067;-81
2022/09/15 02:43:55;;;;;;;8.25;3.25;;;;;;;26.41;58.56;100329.66;5048787;28;20064;-82
2022/09/15 02:46:23;;;;;;;6.50;3.38;;;;;;;26.15;58.79;100284.88;5032105;28;20053;-81
2022/09/15 02:48:49;;;;;;;7.60;2.70;;;;;;;26.61;58.17;100329.19;5048996;28;20511;-81
2022/09/15 02:51:17;;;;;;;10.38;2.90;;;;;;;26.43;58.29;100294.88;5031494;28;20484;-82
2022/09/15 02:53:45;;;;;;;9.57;3.63;;;;;;;25.66;58.23;100167.69;5031523;28;20135;-82
2022/09/15 02:56:12;;;;;;;5.38;2.95;;;;;;;26.39;57.87;100252.06;5049351;28;20045;-82
2022/09/15 02:58:38;;;;;;;4.63;2.80;;;;;;;26.32;58.17;100240.53;5031493;28;20638;-82
2022/09/15 03:01:06;;;;;;;14.35;3.22;;;;;;;26.40;58.78;100256.41;5032176;28;20049;-82
2022/09/15 03:03:33;;;;;;;7.47;2.92;;;;;;;26.51;58.58;100271.84;5031650;28;20382;-83
2022/09/15 03:06:15;;;;;;;7.10;3.05;;;;;;;26.42;58.92;100297.81;5031785;28;20052;-81
2022/09/15 03:08:54;;;;;;;7.70;2.88;;;;;;;26.11;59.32;100251.09;5031444;28;20052;-81
2022/09/15 03:11:23;;;;;;;6.97;3.17;;;;;;;26.28;60.25;100296.50;5031368;28;20051;-80
2022/09/15 03:14:01;;;;;;;7.93;3.10;;;;;;;26.31;58.92;100305.00;5031405;28;20319;-81
2022/09/15 03:16:29;;;;;;;5.22;2.70;;;;;;;26.11;59.43;100281.00;5031139;28;20059;-81
2022/09/15 03:19:00;;;;;;;7.65;3.30;;;;;;;26.29;58.97;100314.47;5031171;28;20057;-80
2022/09/15 03:21:28;;;;;;;4.90;2.30;;;;;;;25.61;58.71;100218.38;5031133;28;20412;-81
2022/09/15 03:23:56;;;;;;;10.30;2.88;;;;;;;26.14;58.11;100294.13;5030838;28;20407;-82
2022/09/15 03:26:23;;;;;;;8.13;2.92;;;;;;;26.25;58.09;100295.09;5030864;28;20053;-83
2022/09/15 03:28:50;;;;;;;12.10;2.97;;;;;;;26.34;57.69;100281.94;5031087;28;20080;-80
2022/09/15 03:31:16;;;;;;;6.53;2.75;;;;;;;26.48;58.11;100321.31;5031047;28;20055;-81
2022/09/15 03:33:43;;;;;;;12.38;3.33;;;;;;;26.47;57.86;100294.34;5048791;28;20045;-81
2022/09/15 03:36:10;;;;;;;13.32;3.30;;;;;;;26.50;58.05;100294.66;5031260;28;20472;-82
2022/09/15 03:38:36;;;;;;;5.50;2.70;;;;;;;26.50;58.04;100283.78;5031049;28;20053;-81
2022/09/15 03:41:08;;;;;;;6.63;3.03;;;;;;;25.82;58.32;100185.03;5030969;28;20076;-81
2022/09/15 03:43:35;;;;;;;5.95;2.63;;;;;;;25.42;58.34;100150.69;5030620;28;20661;-80
2022/09/15 03:46:05;;;;;;;8.35;2.88;;;;;;;26.31;58.48;100279.69;5047373;28;20131;-81
2022/09/15 03:48:34;;;;;;;8.40;2.97;;;;;;;26.22;58.23;100252.09;5048321;28;20136;-80
2022/09/15 03:51:02;;;;;;;10.52;3.20;;;;;;;26.34;58.57;100252.00;5030246;28;20059;-82
2022/09/15 03:53:33;;;;;;;5.28;3.25;;;;;;;26.25;58.63;100254.28;5030683;28;20049;-81
2022/09/15 03:56:11;;;;;;;10.15;3.30;;;;;;;26.04;58.74;100239.53;5030445;28;20489;-81
2022/09/15 03:58:37;;;;;;;12.07;3.03;;;;;;;26.08;58.97;100259.75;5030528;28;20051;-82
2022/09/15 04:01:04;;;;;;;7.05;3.22;;;;;;;25.87;59.73;100236.00;5030557;28;20056;-81
2022/09/15 04:03:31;;;;;;;11.55;3.45;;;;;;;25.85;59.58;100224.50;5048412;28;20068;-82
2022/09/15 04:05:57;;;;;;;11.05;3.10;;;;;;;25.96;59.58;100250.84;5030517;28;20048;-79
2022/09/15 04:08:24;;;;;;;14.05;3.53;;;;;;;25.76;59.34;100208.63;5048530;28;20136;-80
2022/09/15 04:10:51;;;;;;;8.68;3.38;;;;;;;26.07;59.43;100258.09;5049817;28;20048;-81
2022/09/15 04:13:18;;;;;;;13.27;3.10;;;;;;;25.89;59.24;100233.88;5031624;28;20059;-82
2022/09/15 04:15:45;;;;;;;6.70;2.78;;;;;;;25.82;59.64;100227.72;5030603;28;20523;-80
2022/09/15 04:18:11;;;;;;;9.88;3.55;;;;;;;25.65;59.63;100212.22;5048017;28;20106;-81
2022/09/15 04:20:39;;;;;;;11.43;3.60;;;;;;;26.06;59.68;100261.88;5029873;28;20575;-80
2022/09/15 04:23:06;;;;;;;13.73;3.92;;;;;;;26.03;59.49;100258.84;5029988;28;20045;-80
2022/09/15 04:25:35;;;;;;;6.93;3.25;;;;;;;26.04;59.71;100250.41;5048029;28;20099;-82
2022/09/15 04:28:02;;;;;;;8.77;3.80;;;;;;;25.99;59.72;100251.16;5030056;28;20543;-82
2022/09/15 04:30:31;;;;;;;11.25;4.35;;;;;;;25.28;60.04;100154.78;5034655;28;20102;-82
2022/09/15 04:32:59;;;;;;;9.65;4.53;;;;;;;25.97;60.13;100268.78;5033687;28;20123;-82
2022/09/15 04:35:26;;;;;;;14.25;4.30;;;;;;;25.33;59.93;100179.31;5030145;28;20471;-83
2022/09/15 04:37:53;;;;;;;9.85;3.72;;;;;;;26.12;59.74;100304.44;5029579;28;20047;-82
2022/09/15 04:40:20;;;;;;;8.88;4.35;;;;;;;26.10;59.79;100287.53;5046530;28;20491;-81
2022/09/15 04:42:46;;;;;;;15.38;3.70;;;;;;;25.85;59.73;100240.81;5046312;28;20106;-80
2022/09/15 04:45:13;;;;;;;18.08;4.32;;;;;;;26.22;59.67;100293.72;5044861;28;20156;-83
2022/09/15 04:47:39;;;;;;;12.27;3.97;;;;;;;26.12;59.47;100279.94;5028298;28;20492;-83
2022/09/15 04:50:06;;;;;;;17.58;4.38;;;;;;;26.00;59.47;100260.97;5045654;28;20136;-82
2022/09/15 04:52:33;;;;;;;12.88;4.18;;;;;;;25.97;59.81;100269.63;5028026;28;20077;-82
2022/09/15 04:55:02;;;;;;;12.68;4.47;;;;;;;25.29;59.66;100160.00;5028772;28;20102;-85
2022/09/15 04:57:32;;;;;;;11.85;4.47;;;;;;;25.50;59.64;100195.66;5028585;28;20388;-82
2022/09/15 04:59:59;;;;;;;22.27;5.63;;;;;;;26.04;59.46;100284.97;5029552;28;20114;-82
2022/09/15 05:02:25;;;;;;;21.25;6.07;;;;;;;25.89;59.78;100261.88;5028263;28;20059;-84
2022/09/15 05:04:52;;;;;;;16.05;5.03;;;;;;;25.66;59.66;100219.31;5029650;28;20063;-81
2022/09/15 05:07:19;;;;;;;18.30;5.65;;;;;;;26.23;59.49;100299.97;5046905;28;20076;-83
2022/09/15 05:09:45;;;;;;;13.85;5.45;;;;;;;26.06;59.44;100285.53;5029495;28;20048;-82
2022/09/15 05:12:13;;;;;;;15.88;6.00;;;;;;;26.22;59.48;100310.03;5029540;28;20073;-83
2022/09/15 05:14:39;;;;;;;15.88;5.20;;;;;;;26.37;59.20;100314.06;5046866;28;20041;-84
2022/09/15 05:17:06;;;;;;;16.08;5.00;;;;;;;25.84;58.83;100220.16;5029388;28;20127;-83
2022/09/15 05:19:33;;;;;;;19.40;5.43;;;;;;;25.84;58.75;100220.16;5046896;28;20182;-82
2022/09/15 05:21:59;;;;;;;15.77;5.38;;;;;;;26.37;59.14;100319.50;5047417;28;20052;-84
2022/09/15 05:24:26;;;;;;;5.50;4.25;;;;;;;26.12;59.32;100290.81;5048815;28;20163;-82
2022/09/15 05:26:52;;;;;;;14.70;5.15;;;;;;;24.90;59.83;100100.03;5029957;28;20049;-83
2022/09/15 05:29:19;;;;;;;17.70;5.25;;;;;;;26.23;60.25;100305.41;5029902;28;20091;-83
2022/09/15 05:31:46;;;;;;;12.80;5.60;;;;;;;26.03;60.33;100277.88;5029643;28;20048;-83
2022/09/15 05:34:12;;;;;;;16.58;5.28;;;;;;;25.99;60.67;100296.56;5046574;28;20055;-83
2022/09/15 05:36:39;;;;;;;14.45;5.15;;;;;;;25.41;60.43;100216.13;5046511;28;20064;-83
2022/09/15 05:39:06;;;;;;;14.70;4.97;;;;;;;25.92;60.22;100294.00;5045241;28;20052;-81
2022/09/15 05:41:32;;;;;;;19.58;4.65;;;;;;;25.58;60.28;100260.47;5028804;28;20132;-83
2022/09/15 05:43:59;;;;;;;17.17;4.28;;;;;;;25.94;60.37;100318.25;5029660;28;20173;-82
2022/09/15 05:46:28;;;;;;;13.25;4.55;;;;;;;25.03;60.43;100198.56;5037016;28;20049;-83
2022/09/15 05:48:57;;;;;;;11.35;3.80;;;;;;;25.89;60.32;100329.03;5019740;28;20041;-84
2022/09/15 05:51:24;;;;;;;12.98;4.70;;;;;;;25.84;60.51;100323.47;5026681;28;20140;-82
2022/09/15 05:53:53;;;;;;;17.65;5.15;;;;;;;25.35;60.78;100270.38;5026611;28;20136;-81
2022/09/15 05:56:20;;;;;;;12.93;4.10;;;;;;;25.24;60.75;100252.22;5008747;28;20160;-83
2022/09/15 05:58:47;;;;;;;14.75;4.72;;;;;;;25.16;61.14;100252.59;5009123;28;20053;-81
2022/09/15 06:01:41;;;;;;;17.13;4.93;;;;;;;25.78;61.27;100342.41;5024930;28;20046;-82
2022/09/15 06:04:07;;;;;;;16.42;5.13;;;;;;;24.45;61.04;100141.44;5017951;28;20532;-82
2022/09/15 06:06:37;;;;;;;17.33;4.55;;;;;;;25.72;62.16;100358.88;5017101;28;20053;-80
2022/09/15 06:09:05;;;;;;;14.65;4.18;;;;;;;25.73;62.48;100347.75;5008489;28;20049;-81
2022/09/15 06:11:41;;;;;;;13.48;4.60;;;;;;;25.68;62.32;100335.94;5008475;28;20049;-81
2022/09/15 06:14:07;;;;;;;14.50;5.70;;;;;;;25.46;62.19;100317.59;5010139;28;20085;-79
2022/09/15 06:16:34;;;;;;;14.30;5.57;;;;;;;25.66;62.45;100355.22;5029695;28;20103;-80
2022/09/15 06:19:02;;;;;;;12.63;5.55;;;;;;;25.75;62.46;100361.94;5015679;28;20083;-81
2022/09/15 06:21:30;;;;;;;19.00;5.25;;;;;;;25.52;62.63;100321.25;5028284;28;20123;-79
2022/09/15 06:24:00;;;;;;;19.42;6.35;;;;;;;25.28;63.14;100283.28;5027092;28;20567;-83
2022/09/15 06:26:29;;;;;;;15.82;5.05;;;;;;;25.70;63.19;100345.50;5028763;28;20052;-80
2022/09/15 06:28:58;;;;;;;13.00;5.15;;;;;;;25.83;63.02;100370.75;5042867;28;20049;-81
2022/09/15 06:31:26;;;;;;;13.23;4.90;;;;;;;25.74;63.19;100354.84;5021497;28;20760;-83
2022/09/15 06:33:56;;;;;;;14.63;5.82;;;;;;;25.89;63.43;100365.19;5027625;28;20119;-83
2022/09/15 06:36:27;;;;;;;23.03;6.30;;;;;;;25.00;63.37;100220.75;5025982;28;20523;-82
2022/09/15 06:38:57;;;;;;;23.50;6.03;;;;;;;24.88;62.98;100213.47;5036761;28;20339;-82
2022/09/15 06:41:24;;;;;;;23.70;5.78;;;;;;;25.40;62.86;100268.84;5009049;28;20099;-82
2022/09/15 06:43:51;;;;;;;14.23;5.72;;;;;;;26.12;62.44;100380.59;5007990;28;20092;-80
2022/09/15 06:46:22;;;;;;;17.40;6.10;;;;;;;26.10;62.51;100376.47;5016442;28;20083;-80
2022/09/15 06:48:50;;;;;;;21.73;6.55;;;;;;;26.10;62.69;100371.03;5020980;28;20283;-79
2022/09/15 06:51:21;;;;;;;22.92;6.53;;;;;;;26.21;62.21;100372.84;5027203;28;20402;-82
2022/09/15 06:53:48;;;;;;;12.93;4.90;;;;;;;25.83;61.29;100295.47;5026954;28;20045;-80
2022/09/15 06:56:17;;;;;;;17.50;5.95;;;;;;;26.01;60.44;100295.25;5023261;28;20144;-82
2022/09/15 06:58:44;;;;;;;16.63;5.07;;;;;;;25.27;59.91;100167.56;5025280;28;20130;-80
2022/09/15 07:01:13;;;;;;;15.57;5.68;;;;;;;25.53;60.24;100209.56;5025501;28;20045;-81
2022/09/15 07:03:42;;;;;;;14.05;5.15;;;;;;;26.45;60.17;100354.47;5005897;28;20060;-81
2022/09/15 07:06:11;;;;;;;18.40;5.55;;;;;;;26.44;59.85;100333.78;5025431;28;20123;-80
2022/09/15 07:08:38;;;;;;;13.63;5.30;;;;;;;26.09;60.17;100288.56;5024320;28;20046;-82
2022/09/15 07:11:06;;;;;;;16.40;5.80;;;;;;;26.21;59.18;100286.63;5022809;28;20062;-81
2022/09/15 07:13:33;;;;;;;16.48;5.50;;;;;;;26.62;59.39;100338.97;5014462;28;20103;-82
2022/09/15 07:16:02;;;;;;;10.10;4.80;;;;;;;26.77;59.20;100370.25;5008010;28;20473;-82
2022/09/15 07:18:30;;;;;;;15.30;4.70;;;;;;;26.57;58.43;100344.34;5007563;28;20416;-82
2022/09/15 07:20:59;;;;;;;16.50;5.70;;;;;;;26.93;58.55;100388.47;5024313;28;20508;-80
2022/09/15 07:23:26;;;;;;;17.00;5.38;;;;;;;26.51;58.53;100315.38;5007654;28;20145;-84
2022/09/15 07:26:03;;;;;;;10.80;3.95;;;;;;;26.91;58.00;100382.44;5026376;28;20041;-82
2022/09/15 07:28:30;;;;;;;15.32;4.60;;;;;;;26.68;58.04;100334.47;5012194;28;20103;-81
2022/09/15 07:30:56;;;;;;;11.73;4.47;;;;;;;26.86;57.68;100336.06;5011425;28;20041;-83
2022/09/15 07:33:23;;;;;;;13.82;5.63;;;;;;;26.69;58.35;100318.94;5011224;28;20046;-81
2022/09/15 07:35:50;;;;;;;14.52;5.03;;;;;;;26.88;58.29;100361.16;5013627;28;20136;-80
2022/09/15 07:38:16;;;;;;;9.85;5.15;;;;;;;26.42;58.04;100298.63;5031056;28;20057;-79
2022/09/15 07:40:44;;;;;;;15.15;4.60;;;;;;;26.79;57.52;100338.97;5048915;28;20109;-81
2022/09/15 07:43:11;;;;;;;10.75;3.90;;;;;;;26.86;57.46;100352.41;5033296;28;20445;-81
2022/09/15 07:45:38;;;;;;;16.38;5.22;;;;;;;26.76;57.42;100327.75;5018370;28;20045;-81
2022/09/15 07:48:11;;;;;;;14.57;5.03;;;;;;;26.48;58.09;100280.47;5029274;28;20203;-80
2022/09/15 07:50:38;;;;;;;15.82;5.20;;;;;;;26.99;57.92;100349.34;5011273;28;20081;-79
2022/09/15 07:53:04;;;;;;;12.13;4.63;;;;;;;26.89;57.58;100319.22;5011221;28;20132;-81
2022/09/15 07:55:31;;;;;;;11.95;4.45;;;;;;;26.77;57.34;100299.44;5027389;28;20048;-81
2022/09/15 07:58:02;;;;;;;19.80;5.50;;;;;;;26.77;57.10;100294.00;5011394;28;20061;-79
2022/09/15 08:00:29;;;;;;;15.15;5.18;;;;;;;26.90;56.93;100325.50;5011024;28;20081;-81
2022/09/15 08:02:56;;;;;;;18.67;4.72;;;;;;;27.08;56.91;100344.25;5010813;28;20049;-80
2022/09/15 08:05:27;;;;;;;13.25;4.68;;;;;;;27.10;56.85;100352.19;5014160;28;20496;-80
2022/09/15 08:07:54;;;;;;;;;;;;;;;27.34;55.71;100350.91;5049270;28;20057;-81
2022/09/15 08:10:26;;;;;;;17.42;5.40;;;;;;;27.37;55.61;100355.03;5030959;28;20273;-80
2022/09/15 08:13:23;;;;;;;16.23;4.65;;;;;;;26.39;55.00;100193.00;5031004;28;20099;-82
2022/09/15 08:15:51;;;;;;;20.15;5.47;;;;;;;27.17;55.29;100320.13;5032727;28;20092;-78
2022/09/15 08:18:19;;;;;;;18.60;5.00;;;;;;;27.45;55.54;100358.13;5021481;28;20410;-80
2022/09/15 08:20:46;;;;;;;11.85;4.15;;;;;;;26.96;55.23;100281.72;5054099;28;20135;-81
2022/09/15 08:23:12;;;;;;;14.88;3.85;;;;;;;27.31;54.62;100321.44;5034978;28;20136;-82
2022/09/15 08:25:39;;;;;;;14.48;4.25;;;;;;;27.19;53.82;100304.41;5030576;28;20253;-81
2022/09/15 08:28:15;;;;;;;12.25;4.25;;;;;;;27.12;53.41;100301.00;5023232;28;20061;-79
2022/09/15 08:30:42;;;;;;;14.65;3.83;;;;;;;26.91;52.71;100257.16;5030524;28;20049;-80
2022/09/15 08:33:11;;;;;;;19.02;4.93;;;;;;;27.35;52.91;100319.84;5047872;28;20153;-81
2022/09/15 08:35:38;;;;;;;15.68;4.13;;;;;;;27.58;52.11;100354.19;5020440;28;20128;-82
2022/09/15 08:38:04;;;;;;;9.15;3.65;;;;;;;27.14;52.34;100291.50;5009043;28;20085;-80
2022/09/15 08:40:36;;;;;;;15.93;4.20;;;;;;;27.18;52.22;100294.53;5019309;28;20309;-79
2022/09/15 08:43:16;;;;;;;13.10;4.20;;;;;;;26.96;51.67;100231.88;5030106;28;20515;-80
2022/09/15 08:45:54;;;;;;;21.10;4.78;;;;;;;27.46;52.24;100310.72;5029171;28;20447;-82
2022/09/15 08:48:30;;;;;;;23.65;5.00;;;;;;;26.88;51.80;100229.63;5025875;28;20610;-80
2022/09/15 08:51:02;;;;;;;18.30;5.53;;;;;;;27.20;52.19;100278.78;5021302;28;20063;-82
2022/09/15 08:53:44;;;;;;;21.55;5.30;;;;;;;27.61;52.25;100341.94;4971380;28;20065;-84
2022/09/15 08:56:16;;;;;;;;;;;;;;;27.71;51.63;100352.97;5026759;28;20077;-80
2022/09/15 08:58:44;;;;;;;21.75;4.70;;;;;;;27.81;51.50;100357.69;5030567;28;19964;-79
2022/09/15 09:01:31;;;;;;;19.75;4.15;;;;;;;27.88;51.25;100353.72;5030362;28;20284;-79
2022/09/15 09:04:22;;;;;;;19.13;4.55;;;;;;;26.99;52.14;100196.81;5026296;28;20041;-81
2022/09/15 09:07:04;;;;;;;15.57;4.80;;;;;;;27.51;51.67;100262.78;5045858;28;20387;-78
2022/09/15 09:09:51;;;;;;;17.13;4.82;;;;;;;28.02;51.67;100326.03;5033878;28;20049;-79
2022/09/15 09:12:18;;;;;;;18.50;4.85;;;;;;;28.02;51.00;100312.38;5017986;28;20119;-81
2022/09/15 09:15:12;;;;;;;14.48;4.47;;;;;;;28.19;51.13;100325.91;5025499;28;20057;-83
2022/09/15 09:18:08;;;;;;;14.07;4.72;;;;;;;28.34;50.42;100318.66;5009579;28;20140;-81
2022/09/15 09:21:11;;;;;;;23.42;5.32;;;;;;;28.56;50.01;100325.94;5025786;28;20284;-84
2022/09/15 09:24:04;;;;;;;26.42;5.35;;;;;;;28.50;48.72;100299.69;5027082;28;20517;-82
2022/09/15 09:26:35;;;;;;;25.58;4.35;;;;;;;28.72;49.43;100303.13;5009788;28;20088;-79
2022/09/15 09:29:26;;;;;;;34.28;7.65;;;;;;;27.74;47.34;100128.00;5028879;28;20056;-80
2022/09/15 09:31:58;;;;;;;37.72;5.88;;;;;;;27.87;47.64;100109.31;5029189;28;20077;-80
2022/09/15 09:34:37;;;;;;;67.57;9.18;;;;;;;28.31;45.61;100170.97;5029598;28;20056;-81
2022/09/15 09:37:10;;;;;;;63.75;9.05;;;;;;;28.49;45.29;100184.19;5032307;28;20477;-80
2022/09/15 09:39:37;;;;;;;54.03;9.40;;;;;;;28.52;44.67;100171.91;5039128;28;20419;-81
2022/09/15 09:42:05;;;;;;;66.93;10.40;;;;;;;29.26;44.62;100279.34;5009176;28;20038;-83
2022/09/15 09:44:32;;;;;;;71.57;12.13;;;;;;;29.08;44.73;100240.47;5008698;28;20093;-81
2022/09/15 09:47:00;;;;;;;76.18;11.38;;;;;;;29.39;44.53;100262.41;5008485;28;20053;-80
2022/09/15 09:49:33;;;;;;;70.60;11.40;;;;;;;29.48;44.58;100260.81;5021370;28;20118;-80
2022/09/15 09:52:02;;;;;;;69.93;10.85;;;;;;;29.81;43.72;100277.84;5042188;28;20535;-82
2022/09/15 09:54:31;;;;;;;84.78;12.50;;;;;;;29.61;43.97;100243.03;5026859;28;20164;-81
2022/09/15 09:57:21;;;;;;;65.22;10.70;;;;;;;30.18;42.86;100285.78;5031935;28;20059;-83
2022/09/15 09:59:49;;;;;;;91.97;12.55;;;;;;;30.20;42.69;100258.16;5045667;28;20049;-81
2022/09/15 10:02:24;;;;;;;66.68;11.70;;;;;;;30.19;42.65;100242.81;5044523;28;20079;-82
2022/09/15 10:05:14;;;;;;;64.78;12.00;;;;;;;29.55;42.82;100132.84;5042992;28;20428;-82
2022/09/15 10:07:44;;;;;;;74.55;10.30;;;;;;;30.03;42.56;100207.25;5046102;28;20095;-82
2022/09/15 10:10:24;;;;;;;61.97;10.73;;;;;;;29.38;42.70;100105.75;5045946;28;20049;-80
2022/09/15 10:13:01;;;;;;;94.53;14.38;;;;;;;29.46;42.39;100115.31;5039980;28;20377;-79
2022/09/15 10:15:32;;;;;;;92.28;12.30;;;;;;;29.53;42.32;100113.13;5041445;28;20372;-83
2022/09/15 10:18:02;;;;;;;103.05;14.57;;;;;;;30.84;41.94;100273.13;5008183;28;20132;-81
2022/09/15 10:20:34;;;;;;;74.55;13.18;;;;;;;30.24;41.49;100153.28;5025398;28;20481;-84
2022/09/15 10:23:28;;;;;;;96.13;14.55;;;;;;;30.48;41.23;100158.16;5024706;28;20054;-79
2022/09/15 10:26:18;;;;;;;77.05;13.20;;;;;;;31.33;41.48;100271.53;5039210;28;20313;-83
2022/09/15 10:29:10;;;;;;;85.63;13.48;;;;;;;31.47;41.33;100264.34;5031003;28;20477;-79
2022/09/15 10:31:39;;;;;;;76.25;13.40;;;;;;;31.12;41.61;100203.13;5009098;28;20061;-82
2022/09/15 10:34:29;;;;;;;70.25;13.90;;;;;;;30.44;40.88;100070.28;5009653;28;20053;-81
2022/09/15 10:37:49;;;;;;;87.78;15.57;;;;;;;31.12;41.01;100159.25;5013101;28;20053;-84
2022/09/15 10:40:44;;;;;;;79.43;12.35;;;;;;;31.14;41.08;100148.78;4975770;28;20054;-80
2022/09/15 10:43:31;;;;;;;105.80;15.65;;;;;;;31.90;40.52;100264.59;5030200;28;20238;-80
2022/09/15 10:46:24;;;;;;;118.63;16.55;;;;;;;31.76;40.91;100247.16;5008113;28;20146;-81
2022/09/15 10:49:22;;;;;;;109.43;15.85;;;;;;;31.99;40.31;100267.56;5032713;28;20140;-79
2022/09/15 10:51:57;;;;;;;108.88;14.50;;;;;;;31.96;40.53;100257.97;5020263;28;20164;-83
2022/09/15 10:54:40;;;;;;;113.85;14.45;;;;;;;30.68;40.47;100066.84;5008095;28;20053;-84
2022/09/15 10:57:26;;;;;;;90.63;14.75;;;;;;;31.79;40.29;100252.06;5008050;28;20472;-82
2022/09/15 11:00:16;;;;;;;95.55;14.77;;;;;;;31.66;40.36;100251.59;5025204;28;20060;-83
2022/09/15 11:03:31;;;;;;;102.03;13.48;;;;;;;31.11;41.35;100198.72;5012351;28;20156;-82
2022/09/15 11:06:04;;;;;;;92.90;15.18;;;;;;;31.37;41.38;100267.13;4969402;28;20469;-79
2022/09/15 11:08:50;;;;;;;95.43;14.25;;;;;;;31.29;41.13;100263.88;5018973;28;20059;-82
2022/09/15 11:11:38;;;;;;;99.90;11.75;;;;;;;31.17;41.82;100257.91;5047993;28;20394;-79
2022/09/15 11:14:21;;;;;;;74.38;11.90;;;;;;;31.09;42.18;100266.72;5022326;28;20102;-81
2022/09/15 11:16:57;;;;;;;75.40;12.63;;;;;;;30.86;42.30;100208.72;5037023;28;20053;-81
2022/09/15 11:19:47;;;;;;;66.35;12.00;;;;;;;31.06;42.13;100259.06;5036814;28;20046;-80
2022/09/15 11:22:20;;;;;;;68.25;10.15;;;;;;;30.32;42.40;100149.19;5038562;28;20138;-81
2022/09/15 11:24:53;;;;;;;53.88;9.57;;;;;;;30.06;43.16;100145.66;5019312;28;20073;-81
2022/09/15 11:27:39;;;;;;;54.97;9.77;;;;;;;30.53;43.46;100247.69;5017081;28;20041;-79
2022/09/15 11:30:22;;;;;;;58.95;10.02;;;;;;;30.58;43.74;100270.41;5018674;28;20141;-81
2022/09/15 11:33:05;;;;;;;65.40;10.50;;;;;;;29.18;44.00;100031.97;5023119;28;20053;-80
2022/09/15 11:35:46;;;;;;;61.58;10.30;;;;;;;30.39;44.38;100236.50;5015661;28;20489;-81
2022/09/15 11:38:47;;;;;;;59.50;9.77;;;;;;;29.85;44.14;100152.25;5037165;28;20103;-80
2022/09/15 11:41:14;;;;;;;56.28;10.05;;;;;;;30.38;44.74;100275.94;5040814;28;20053;-81
2022/09/15 11:44:10;;;;;;;50.28;9.20;;;;;;;29.14;45.10;100069.94;5020024;28;20050;-81
2022/09/15 11:46:57;;;;;;;54.50;9.82;;;;;;;30.42;45.05;100288.00;5033153;28;20064;-80